createdAt,value
2023-04-25T00:07:45.790Z,100.00
2023-04-25T00:17:48.477Z,100.00
2023-04-25T00:27:50.742Z,100.00
2023-04-25T00:37:52.870Z,100.00
2023-04-25T00:47:55.807Z,100.00
2023-04-25T00:57:58.252Z,100.00
2023-04-25T01:08:00.862Z,100.00
2023-04-25T01:18:03.241Z,100.00
2023-04-25T01:28:05.815Z,100.00
2023-04-25T01:38:08.055Z,100.00
2023-04-25T01:48:11.332Z,100.00
2023-04-25T01:58:14.251Z,100.00
2023-04-25T02:08:17.944Z,100.00
2023-04-25T02:18:20.556Z,100.00
2023-04-25T02:28:22.700Z,100.00
2023-04-25T02:38:25.009Z,100.00
2023-04-25T02:48:27.123Z,100.00
2023-04-25T02:58:29.103Z,100.00
2023-04-25T03:08:33.771Z,100.00
2023-04-25T03:18:35.934Z,100.00
2023-04-25T03:28:38.047Z,100.00
2023-04-25T03:38:40.105Z,100.00
2023-04-25T03:48:42.240Z,100.00
2023-04-25T03:58:44.786Z,100.00
2023-04-25T04:08:46.979Z,100.00
2023-04-25T04:18:49.055Z,100.00
2023-04-25T04:28:55.607Z,100.00
2023-04-25T04:38:57.695Z,100.00
2023-04-25T04:49:00.223Z,100.00
2023-04-25T04:59:04.010Z,100.00
2023-04-25T05:09:06.023Z,100.00
2023-04-25T05:19:08.174Z,100.00
2023-04-25T05:29:10.312Z,100.00
2023-04-25T05:39:12.765Z,100.00
2023-04-25T05:49:16.041Z,100.00
2023-04-25T05:59:19.830Z,100.00
2023-04-25T06:09:22.595Z,100.00
2023-04-25T06:19:24.958Z,100.00
2023-04-25T06:29:27.225Z,100.00
2023-04-25T06:39:29.569Z,100.00
2023-04-25T06:49:31.863Z,100.00
2023-04-25T06:59:34.242Z,100.00
2023-04-25T07:09:36.583Z,100.00
2023-04-25T07:19:41.222Z,100.00
2023-04-25T07:29:43.686Z,100.00
2023-04-25T07:39:48.361Z,100.00
2023-04-25T07:49:51.067Z,100.00
2023-04-25T07:59:53.725Z,100.00
2023-04-25T08:09:56.649Z,100.00
2023-04-25T08:19:59.315Z,100.00
2023-04-25T08:30:01.802Z,100.00
2023-04-25T08:40:08.496Z,100.00
2023-04-25T08:50:10.872Z,100.00
2023-04-25T09:00:14.162Z,100.00
2023-04-25T09:10:16.448Z,100.00
2023-04-25T09:20:19.014Z,100.00
2023-04-25T09:30:30.821Z,100.00
2023-04-25T09:40:33.444Z,100.00
2023-04-25T09:50:36.319Z,100.00
2023-04-25T10:00:39.276Z,100.00
2023-04-25T10:10:41.933Z,100.00
2023-04-25T10:20:44.621Z,100.00
2023-04-25T10:31:04.246Z,100.00
2023-04-25T10:41:09.587Z,94.03
2023-04-25T10:51:12.765Z,94.70
2023-04-25T11:01:16.157Z,91.78
2023-04-25T11:11:19.093Z,79.48
2023-04-25T11:21:21.961Z,80.71
2023-04-25T11:31:26.252Z,73.94
2023-04-25T11:41:28.658Z,80.55
2023-04-25T11:51:32.267Z,67.85
2023-04-25T12:01:35.968Z,72.32
2023-04-25T12:11:45.285Z,63.61
2023-04-25T12:21:57.300Z,54.86
2023-04-25T12:32:01.257Z,51.50
2023-04-25T12:42:06.870Z,76.90
2023-04-25T12:52:11.414Z,100.00
2023-04-25T13:02:14.098Z,100.00
2023-04-25T13:12:16.979Z,100.00
2023-04-25T13:22:21.553Z,100.00
2023-04-25T13:32:23.955Z,100.00
2023-04-25T13:42:26.556Z,100.00
2023-04-25T13:52:29.294Z,100.00
2023-04-25T14:02:32.205Z,82.01
2023-04-25T14:12:34.837Z,67.65
2023-04-25T14:22:37.290Z,83.41
2023-04-25T14:32:39.728Z,82.59
2023-04-25T14:42:42.666Z,66.74
2023-04-25T14:52:46.528Z,62.51
2023-04-25T15:02:52.686Z,66.68
2023-04-25T15:12:55.853Z,60.53
2023-04-25T15:22:59.719Z,85.48
2023-04-25T15:33:02.041Z,100.00
2023-04-25T15:43:05.039Z,100.00
2023-04-25T15:53:07.871Z,100.00
2023-04-25T16:03:11.300Z,100.00
2023-04-25T16:13:14.191Z,100.00
2023-04-25T16:23:17.502Z,100.00
2023-04-25T16:33:19.975Z,100.00
2023-04-25T16:43:22.722Z,100.00
2023-04-25T16:53:25.236Z,100.00
2023-04-25T17:03:28.723Z,100.00
2023-04-25T17:13:31.721Z,100.00
2023-04-25T17:23:34.754Z,100.00
2023-04-25T17:33:37.084Z,100.00
2023-04-25T17:43:39.307Z,100.00
2023-04-25T17:53:41.945Z,100.00
2023-04-25T18:03:46.119Z,100.00
2023-04-25T18:13:49.007Z,100.00
2023-04-25T18:23:51.457Z,100.00
2023-04-25T18:33:53.965Z,100.00
2023-04-25T18:43:58.971Z,100.00
2023-04-25T18:54:12.474Z,100.00
2023-04-25T19:04:15.154Z,100.00
2023-04-25T19:14:17.697Z,100.00
2023-04-25T19:24:20.387Z,100.00
2023-04-25T19:34:22.802Z,100.00
2023-04-25T19:44:25.239Z,100.00
2023-04-25T19:54:27.597Z,100.00
2023-04-25T20:04:30.027Z,100.00
2023-04-25T20:14:33.259Z,100.00
2023-04-25T20:24:35.562Z,100.00
2023-04-25T20:34:37.766Z,100.00
2023-04-25T20:44:41.179Z,100.00
2023-04-25T20:54:44.092Z,100.00
2023-04-25T21:04:46.958Z,100.00
2023-04-25T21:14:49.616Z,100.00
2023-04-25T21:24:54.443Z,100.00
2023-04-25T21:34:56.646Z,100.00
2023-04-25T21:44:58.800Z,100.00
2023-04-25T21:55:00.996Z,100.00
2023-04-25T22:05:03.120Z,100.00
2023-04-25T22:15:05.903Z,100.00
2023-04-25T22:25:09.163Z,100.00
2023-04-25T22:35:11.962Z,100.00
2023-04-25T22:45:14.875Z,100.00
2023-04-25T22:55:16.962Z,100.00
2023-04-25T23:05:18.975Z,100.00
2023-04-25T23:15:20.967Z,100.00
2023-04-25T23:25:22.967Z,100.00
2023-04-25T23:35:25.071Z,100.00
2023-04-25T23:45:27.144Z,100.00
2023-04-25T23:55:29.210Z,100.00
